TAMU Turf Lab's Hourly Summary for Wednesday, May 9, 2018
Hour Temp
(f)
RH
(%)
Solar Rad.
(MJ/m2)
Rainfall
(in)
Wind
(mph)
5/9/2018 12:00 AM 71 49 0 0 6.51
5/9/2018 1:00 AM 68 55 0 0 6.11
5/9/2018 2:00 AM 66 64 0 0 5.14
5/9/2018 3:00 AM 64 72 0 0 2.97
5/9/2018 4:00 AM 63 79 0 0 2.9
5/9/2018 5:00 AM 63 85 0 0 1.41
5/9/2018 6:00 AM 62 88 0 0 0
5/9/2018 7:00 AM 62 90 0.01 0 0.87
5/9/2018 8:00 AM 62 90 0.25 0 3.02
5/9/2018 9:00 AM 65 84 0.89 0 4.5
5/9/2018 10:00 AM 69 71 1.63 0 7.04
5/9/2018 11:00 AM 73 54 2.27 0 7.4
5/9/2018 12:00 PM 77 42 2.76 0 8.39
5/9/2018 1:00 PM 81 38 3.03 0 9.41
5/9/2018 2:00 PM 83 37 3.1 0 9.43
5/9/2018 3:00 PM 84 34 3.03 0 10.09
5/9/2018 4:00 PM 85 33 2.77 0 8.94
5/9/2018 5:00 PM 85 32 2.34 0 9.63
5/9/2018 6:00 PM 85 32 1.76 0 9.64
5/9/2018 7:00 PM 83 32 1.03 0 9.02
5/9/2018 8:00 PM 80 34 0.35 0 6.84
5/9/2018 9:00 PM 76 39 0.01 0 4.16
5/9/2018 10:00 PM 73 46 0 0 4.56
5/9/2018 11:00 PM 72 50 0 0 5.62
Data Summary 73 55 25.23 0.00 5.98